Time;durP1;ratioP1;P1;durP2;ratioP2;P2;SDS_P1;SDS_P2;PMS_P1;PMS_P2;Temp;Humidity;BMP_temperature;BMP_pressure;BME280_temperature;BME280_humidity;BME280_pressure;Samples;Min_cycle;Max_cycle;Signal;HPM_P1;HPM_P2
2023/04/25 00:00:52;;;;;;;14.95;3.80;;;;;;;;;;5137911;27;20038;-74
2023/04/25 00:03:19;;;;;;;24.73;4.38;;;;;;;;;;5137505;27;20039;-75
2023/04/25 00:05:45;;;;;;;16.45;3.63;;;;;;;;;;5117177;27;20116;-74
2023/04/25 00:08:11;;;;;;;15.30;3.53;;;;;;;;;;5131683;27;20066;-75
2023/04/25 00:10:37;;;;;;;17.60;3.55;;;;;;;;;;5117201;27;20396;-75
2023/04/25 00:13:04;;;;;;;15.43;3.75;;;;;;;;;;5131563;27;20553;-76
2023/04/25 00:15:30;;;;;;;20.25;3.70;;;;;;;;;;5137113;27;20048;-75
2023/04/25 00:17:57;;;;;;;15.57;3.97;;;;;;;;;;5120451;27;20043;-75
2023/04/25 00:20:24;;;;;;;16.60;3.60;;;;;;;;;;5155528;27;20178;-75
2023/04/25 00:22:52;;;;;;;16.27;3.83;;;;;;;;;;5155982;27;20050;-75
2023/04/25 00:25:18;;;;;;;14.82;4.00;;;;;;;;;;5137008;27;20104;-75
2023/04/25 00:27:44;;;;;;;21.55;3.88;;;;;;;;;;5138046;27;20368;-75
2023/04/25 00:30:11;;;;;;;17.67;4.38;;;;;;;;;;5156093;27;20046;-76
2023/04/25 00:42:45;;;;;;;17.95;3.33;;;;;;;;;;5141291;27;20071;-76
2023/04/25 00:45:14;;;;;;;14.73;3.70;;;;;;;;;;5136776;27;20039;-76
2023/04/25 00:47:40;;;;;;;16.05;3.63;;;;;;;;;;5132180;27;20399;-76
2023/04/25 00:50:07;;;;;;;19.02;3.60;;;;;;;;;;5099539;27;20035;-75
2023/04/25 00:52:33;;;;;;;15.20;3.90;;;;;;;;;;5133735;27;20039;-75
2023/04/25 00:54:59;;;;;;;16.92;3.90;;;;;;;;;;5136606;27;20114;-75
2023/04/25 00:57:26;;;;;;;18.65;3.63;;;;;;;;;;5137201;27;20039;-75
2023/04/25 00:59:53;;;;;;;17.55;3.80;;;;;;;;;;5136697;27;20478;-75
2023/04/25 01:02:20;;;;;;;16.38;4.05;;;;;;;;;;5127571;27;20035;-76
2023/04/25 01:04:46;;;;;;;15.77;4.00;;;;;;;;;;5114462;27;20160;-76
2023/04/25 01:07:13;;;;;;;21.23;3.85;;;;;;;;;;5137086;27;20518;-76
2023/04/25 01:09:39;;;;;;;15.95;3.83;;;;;;;;;;5136998;27;20479;-75
2023/04/25 01:12:05;;;;;;;19.63;4.50;;;;;;;;;;5136301;27;20042;-75
2023/04/25 01:14:31;;;;;;;16.33;3.85;;;;;;;;;;5136627;27;20039;-75
2023/04/25 01:17:00;;;;;;;12.85;3.70;;;;;;;;;;5117649;27;20050;-75
2023/04/25 01:19:26;;;;;;;20.73;3.80;;;;;;;;;;5144717;27;20046;-75
2023/04/25 01:21:52;;;;;;;22.23;3.97;;;;;;;;;;5135670;27;20042;-75
2023/04/25 01:24:18;;;;;;;16.50;3.97;;;;;;;;;;5119040;27;20495;-75
2023/04/25 01:26:49;;;;;;;17.38;3.67;;;;;;;;;;5136218;27;20091;-75
2023/04/25 01:29:15;;;;;;;18.27;3.70;;;;;;;;;;5135912;27;20420;-75
2023/04/25 01:31:42;;;;;;;14.57;3.60;;;;;;;;;;5136124;27;20035;-75
2023/04/25 01:34:08;;;;;;;22.05;5.00;;;;;;;;;;5135878;27;20042;-75
2023/04/25 01:36:34;;;;;;;17.23;3.65;;;;;;;;;;5136259;27;20145;-75
2023/04/25 01:39:01;;;;;;;16.20;3.63;;;;;;;;;;5121130;27;20074;-74
2023/04/25 01:41:27;;;;;;;15.32;3.20;;;;;;;;;;5135987;27;20045;-75
2023/04/25 01:43:53;;;;;;;19.48;3.53;;;;;;;;;;5135635;27;20043;-76
2023/04/25 01:46:19;;;;;;;13.02;3.67;;;;;;;;;;5119124;27;20035;-75
2023/04/25 01:48:46;;;;;;;11.70;3.30;;;;;;;;;;5136052;27;20038;-75
2023/04/25 01:51:12;;;;;;;10.70;3.38;;;;;;;;;;5121015;27;20038;-76
2023/04/25 01:53:39;;;;;;;12.68;3.08;;;;;;;;;;5136094;27;20596;-75
2023/04/25 01:56:06;;;;;;;13.23;3.22;;;;;;;;;;5131427;27;20092;-75
2023/04/25 01:58:32;;;;;;;9.18;2.92;;;;;;;;;;5154344;27;20458;-75
2023/04/25 02:00:58;;;;;;;13.95;2.80;;;;;;;;;;5126523;27;20133;-76
2023/04/25 02:03:24;;;;;;;12.80;2.78;;;;;;;;;;5132243;27;20091;-75
2023/04/25 02:05:50;;;;;;;11.90;3.13;;;;;;;;;;5134410;27;20035;-75
2023/04/25 02:08:17;;;;;;;13.32;2.25;;;;;;;;;;5135198;27;20122;-76
2023/04/25 02:10:43;;;;;;;13.05;2.38;;;;;;;;;;5135911;27;20505;-76
2023/04/25 02:13:09;;;;;;;15.25;2.65;;;;;;;;;;5152307;27;20035;-75
2023/04/25 02:15:35;;;;;;;12.98;3.33;;;;;;;;;;5153838;27;20041;-74
2023/04/25 02:18:02;;;;;;;14.57;2.88;;;;;;;;;;5153650;27;20041;-75
2023/04/25 02:20:29;;;;;;;15.93;2.75;;;;;;;;;;5135384;27;20030;-75
2023/04/25 02:22:55;;;;;;;11.45;2.42;;;;;;;;;;5134882;27;20043;-74
2023/04/25 02:25:22;;;;;;;11.48;2.33;;;;;;;;;;5153704;27;20039;-76
2023/04/25 02:27:49;;;;;;;13.10;3.47;;;;;;;;;;5135747;27;20483;-75
2023/04/25 02:30:15;;;;;;;14.20;2.40;;;;;;;;;;5135087;27;20041;-73
2023/04/25 02:32:41;;;;;;;15.27;2.83;;;;;;;;;;5136308;27;20069;-76
2023/04/25 02:35:07;;;;;;;11.65;2.30;;;;;;;;;;5136182;27;20041;-76
2023/04/25 02:37:34;;;;;;;14.80;3.40;;;;;;;;;;5135637;27;20386;-76
2023/04/25 02:40:00;;;;;;;13.27;2.65;;;;;;;;;;5120826;27;20041;-76
2023/04/25 02:42:27;;;;;;;9.32;1.95;;;;;;;;;;5139434;27;20034;-75
2023/04/25 02:44:53;;;;;;;14.65;2.10;;;;;;;;;;5140003;27;20046;-76
2023/04/25 02:47:20;;;;;;;8.50;2.03;;;;;;;;;;5139273;27;20030;-76
2023/04/25 02:49:46;;;;;;;15.75;2.42;;;;;;;;;;5137964;27;20079;-76
2023/04/25 02:52:12;;;;;;;14.48;2.20;;;;;;;;;;5139315;27;20391;-77
2023/04/25 02:54:38;;;;;;;12.48;2.55;;;;;;;;;;5139528;27;20471;-76
2023/04/25 02:57:05;;;;;;;12.73;2.60;;;;;;;;;;5139078;27;20490;-77
2023/04/25 02:59:31;;;;;;;12.13;1.92;;;;;;;;;;5158046;27;20039;-75
2023/04/25 03:01:57;;;;;;;10.40;2.35;;;;;;;;;;5138671;27;20121;-74
2023/04/25 03:04:26;;;;;;;11.73;2.03;;;;;;;;;;5157687;27;20042;-76
2023/04/25 03:06:52;;;;;;;8.13;1.90;;;;;;;;;;5157784;27;20043;-75
2023/04/25 03:09:19;;;;;;;13.88;2.22;;;;;;;;;;5157130;27;20034;-74
2023/04/25 03:11:45;;;;;;;7.20;1.80;;;;;;;;;;5122451;27;20359;-76
2023/04/25 03:14:11;;;;;;;5.90;1.30;;;;;;;;;;5138584;27;20043;-76
2023/04/25 03:16:38;;;;;;;8.45;1.90;;;;;;;;;;5139135;27;20482;-75
2023/04/25 03:19:04;;;;;;;7.70;1.90;;;;;;;;;;5121690;27;20487;-76
2023/04/25 03:21:32;;;;;;;7.28;1.70;;;;;;;;;;5139143;27;20077;-76
2023/04/25 03:23:58;;;;;;;11.77;2.47;;;;;;;;;;5121135;27;20054;-75
2023/04/25 03:26:24;;;;;;;9.48;1.70;;;;;;;;;;5121708;27;20494;-76
2023/04/25 03:28:50;;;;;;;5.50;1.50;;;;;;;;;;5138622;27;20049;-76
2023/04/25 03:31:17;;;;;;;9.20;2.08;;;;;;;;;;5138607;27;20031;-75
2023/04/25 03:33:43;;;;;;;10.52;1.75;;;;;;;;;;5138526;27;20050;-76
2023/04/25 03:36:09;;;;;;;5.50;1.60;;;;;;;;;;5138505;27;20475;-76
2023/04/25 03:38:36;;;;;;;8.68;1.85;;;;;;;;;;5156749;27;20042;-76
2023/04/25 03:41:02;;;;;;;10.13;1.90;;;;;;;;;;5138271;27;20046;-76
2023/04/25 03:43:28;;;;;;;9.52;1.90;;;;;;;;;;5138207;27;20042;-76
2023/04/25 03:45:54;;;;;;;11.10;2.10;;;;;;;;;;5138560;27;20042;-76
2023/04/25 03:48:27;;;;;;;7.88;1.88;;;;;;;;;;5137766;27;20045;-76
2023/04/25 03:50:53;;;;;;;10.70;2.25;;;;;;;;;;5137711;27;20038;-76
2023/04/25 03:53:19;;;;;;;9.52;2.20;;;;;;;;;;5120926;27;20509;-77
2023/04/25 03:55:45;;;;;;;13.93;2.10;;;;;;;;;;5138480;27;20041;-76
2023/04/25 03:58:11;;;;;;;8.52;2.15;;;;;;;;;;5156355;27;20042;-76
2023/04/25 04:00:38;;;;;;;8.07;1.73;;;;;;;;;;5138676;27;20087;-76
2023/04/25 04:03:04;;;;;;;5.97;1.60;;;;;;;;;;5126737;27;20082;-76
2023/04/25 04:05:30;;;;;;;8.40;1.38;;;;;;;;;;5135537;27;20030;-76
2023/04/25 04:07:56;;;;;;;7.78;1.85;;;;;;;;;;5120290;27;20035;-76
2023/04/25 04:10:23;;;;;;;9.23;1.73;;;;;;;;;;5137621;27;20486;-76
2023/04/25 04:12:49;;;;;;;6.65;1.70;;;;;;;;;;5156578;27;20510;-75
2023/04/25 04:15:15;;;;;;;10.88;1.65;;;;;;;;;;5155977;27;20087;-76
2023/04/25 04:17:41;;;;;;;10.70;1.80;;;;;;;;;;5137967;27;20046;-75
2023/04/25 04:20:08;;;;;;;10.30;1.67;;;;;;;;;;5156008;27;20079;-76
2023/04/25 04:22:35;;;;;;;9.60;1.85;;;;;;;;;;5121303;27;20042;-76
2023/04/25 04:25:02;;;;;;;8.38;1.83;;;;;;;;;;5137947;27;20519;-76
2023/04/25 04:27:29;;;;;;;8.85;1.60;;;;;;;;;;5155767;27;20038;-76
2023/04/25 04:29:55;;;;;;;5.97;1.70;;;;;;;;;;5137587;27;20159;-75
2023/04/25 04:32:23;;;;;;;9.45;1.73;;;;;;;;;;5137186;27;20035;-76
2023/04/25 04:34:49;;;;;;;5.20;1.90;;;;;;;;;;5156050;27;20466;-75
2023/04/25 04:37:15;;;;;;;9.02;1.70;;;;;;;;;;5136753;27;20043;-76
2023/04/25 04:39:41;;;;;;;6.55;1.83;;;;;;;;;;5119852;27;20050;-75
2023/04/25 04:42:08;;;;;;;10.30;2.05;;;;;;;;;;5137401;27;20518;-76
2023/04/25 04:44:35;;;;;;;11.65;1.63;;;;;;;;;;5119916;27;20035;-75
2023/04/25 04:47:01;;;;;;;7.15;1.58;;;;;;;;;;5136424;27;20045;-75
2023/04/25 04:49:27;;;;;;;11.63;1.90;;;;;;;;;;5132802;27;20042;-75
2023/04/25 04:51:54;;;;;;;9.48;1.90;;;;;;;;;;5137203;27;20487;-75
2023/04/25 04:54:20;;;;;;;7.60;2.17;;;;;;;;;;5154822;27;20440;-75
2023/04/25 04:56:46;;;;;;;9.82;2.08;;;;;;;;;;5111820;27;20498;-75
2023/04/25 04:59:12;;;;;;;7.40;1.63;;;;;;;;;;5136733;27;20066;-76
2023/04/25 05:01:38;;;;;;;5.85;1.70;;;;;;;;;;5119591;27;20053;-76
2023/04/25 05:04:05;;;;;;;10.07;2.40;;;;;;;;;;5135506;27;20075;-76
2023/04/25 05:06:31;;;;;;;9.07;1.83;;;;;;;;;;5119501;27;20387;-76
2023/04/25 05:08:57;;;;;;;10.15;2.03;;;;;;;;;;5136577;27;20035;-75
2023/04/25 05:11:24;;;;;;;9.25;2.10;;;;;;;;;;5136100;27;20042;-76
2023/04/25 05:13:52;;;;;;;9.85;1.83;;;;;;;;;;5136382;27;20047;-74
2023/04/25 05:16:19;;;;;;;11.57;2.20;;;;;;;;;;5154616;27;20039;-76
2023/04/25 05:18:46;;;;;;;9.57;2.15;;;;;;;;;;5154801;27;20499;-76
2023/04/25 05:21:12;;;;;;;9.07;2.05;;;;;;;;;;5119177;27;20045;-77
2023/04/25 05:23:38;;;;;;;7.75;1.45;;;;;;;;;;5154439;27;20108;-73
2023/04/25 05:26:05;;;;;;;8.90;1.60;;;;;;;;;;5136251;27;20058;-76
2023/04/25 05:28:31;;;;;;;4.85;1.30;;;;;;;;;;5136079;27;20035;-75
2023/04/25 05:30:57;;;;;;;6.72;1.45;;;;;;;;;;5136348;27;20099;-75
2023/04/25 05:33:23;;;;;;;6.78;1.30;;;;;;;;;;5115330;27;20043;-76
2023/04/25 05:35:49;;;;;;;5.50;1.58;;;;;;;;;;5135815;27;20042;-76
2023/04/25 05:38:19;;;;;;;8.13;1.13;;;;;;;;;;5135448;27;20054;-76
2023/04/25 05:40:45;;;;;;;6.03;1.52;;;;;;;;;;5154644;27;20068;-76
2023/04/25 05:43:11;;;;;;;7.63;1.67;;;;;;;;;;5119152;27;20050;-77
2023/04/25 05:45:37;;;;;;;8.18;1.40;;;;;;;;;;5154677;27;20042;-77
2023/04/25 05:48:03;;;;;;;9.20;1.77;;;;;;;;;;5136471;27;20125;-77
2023/04/25 05:50:29;;;;;;;6.70;1.60;;;;;;;;;;5135624;27;20475;-77
2023/04/25 05:52:55;;;;;;;6.30;1.90;;;;;;;;;;5136461;27;20039;-77
2023/04/25 05:55:21;;;;;;;4.72;1.50;;;;;;;;;;5118475;27;20038;-76
2023/04/25 05:57:47;;;;;;;5.25;1.45;;;;;;;;;;5154295;27;20471;-77
2023/04/25 06:00:15;;;;;;;6.00;1.38;;;;;;;;;;5118733;27;20493;-76
2023/04/25 06:02:42;;;;;;;6.43;1.58;;;;;;;;;;5135447;27;20053;-77
2023/04/25 06:05:08;;;;;;;8.98;1.45;;;;;;;;;;5135474;27;20045;-76
2023/04/25 06:07:34;;;;;;;9.00;1.40;;;;;;;;;;5118256;27;20106;-77
2023/04/25 06:10:00;;;;;;;7.05;1.50;;;;;;;;;;5135831;27;20039;-76
2023/04/25 06:12:27;;;;;;;11.55;1.40;;;;;;;;;;5153436;27;20118;-76
2023/04/25 06:14:53;;;;;;;8.35;1.50;;;;;;;;;;5118074;27;20054;-77
2023/04/25 06:17:19;;;;;;;4.32;1.08;;;;;;;;;;5135319;27;20042;-77
2023/04/25 06:19:45;;;;;;;8.18;1.40;;;;;;;;;;5153937;27;20050;-77
2023/04/25 06:22:11;;;;;;;7.63;1.38;;;;;;;;;;5116532;27;20483;-77
2023/04/25 06:24:37;;;;;;;5.93;1.33;;;;;;;;;;5134968;27;20444;-77
2023/04/25 06:27:05;;;;;;;6.82;1.40;;;;;;;;;;5135414;27;20540;-77
2023/04/25 06:29:31;;;;;;;8.52;1.48;;;;;;;;;;5134805;27;20043;-73
2023/04/25 06:31:57;;;;;;;7.75;1.50;;;;;;;;;;5135728;27;20096;-75
2023/04/25 06:34:23;;;;;;;7.30;1.38;;;;;;;;;;5153194;27;20078;-75
2023/04/25 06:36:49;;;;;;;8.27;1.55;;;;;;;;;;5118006;27;20045;-74
2023/04/25 06:39:16;;;;;;;6.72;1.48;;;;;;;;;;5134944;27;20084;-74
2023/04/25 06:41:42;;;;;;;7.72;1.48;;;;;;;;;;5118134;27;20525;-75
2023/04/25 06:44:08;;;;;;;7.65;1.50;;;;;;;;;;5134897;27;20047;-75
2023/04/25 06:46:34;;;;;;;8.93;1.23;;;;;;;;;;5117798;27;20121;-75
2023/04/25 06:49:00;;;;;;;9.65;1.95;;;;;;;;;;5135116;27;20043;-75
2023/04/25 06:51:29;;;;;;;7.38;1.70;;;;;;;;;;5134962;27;20483;-74
2023/04/25 06:53:55;;;;;;;6.60;1.50;;;;;;;;;;5135108;27;20121;-74
2023/04/25 06:56:23;;;;;;;9.30;1.70;;;;;;;;;;5135050;27;20042;-76
2023/04/25 06:58:49;;;;;;;9.20;1.50;;;;;;;;;;5134759;27;20034;-75
2023/04/25 07:01:15;;;;;;;12.07;1.77;;;;;;;;;;5135479;27;20468;-75
2023/04/25 07:03:41;;;;;;;7.95;1.30;;;;;;;;;;5134586;27;20140;-74
2023/04/25 07:06:07;;;;;;;6.55;1.70;;;;;;;;;;5118046;27;20038;-75
2023/04/25 07:08:34;;;;;;;10.15;1.63;;;;;;;;;;5153400;27;20039;-75
2023/04/25 07:11:00;;;;;;;15.10;1.85;;;;;;;;;;5153565;27;20507;-74
2023/04/25 07:13:26;;;;;;;8.15;1.60;;;;;;;;;;5134708;27;20102;-75
2023/04/25 07:15:52;;;;;;;6.45;1.55;;;;;;;;;;5134745;27;20049;-75
2023/04/25 07:18:18;;;;;;;11.25;1.40;;;;;;;;;;5118165;27;20390;-76
2023/04/25 07:20:44;;;;;;;6.18;1.40;;;;;;;;;;5134460;27;20070;-76
2023/04/25 07:23:10;;;;;;;6.10;1.45;;;;;;;;;;5134806;27;20074;-75
2023/04/25 07:25:36;;;;;;;7.18;1.38;;;;;;;;;;5117169;27;20392;-75
2023/04/25 07:28:02;;;;;;;6.13;1.42;;;;;;;;;;5142417;27;20039;-75
2023/04/25 07:30:29;;;;;;;5.30;1.23;;;;;;;;;;5156818;27;20042;-74
2023/04/25 07:32:55;;;;;;;6.63;1.40;;;;;;;;;;5139081;27;20535;-76
2023/04/25 07:35:21;;;;;;;5.22;1.48;;;;;;;;;;5119282;27;20507;-75
2023/04/25 07:37:47;;;;;;;5.40;1.38;;;;;;;;;;5147371;27;20043;-74
2023/04/25 07:40:16;;;;;;;7.25;1.50;;;;;;;;;;5157071;27;20039;-75
2023/04/25 07:42:42;;;;;;;4.65;1.10;;;;;;;;;;5156615;27;20038;-77
2023/04/25 07:45:09;;;;;;;5.50;1.38;;;;;;;;;;5138220;27;20047;-76
2023/04/25 07:47:35;;;;;;;4.38;1.10;;;;;;;;;;5137947;27;20038;-74
2023/04/25 07:50:02;;;;;;;4.45;1.00;;;;;;;;;;5156655;27;20038;-75
2023/04/25 07:52:28;;;;;;;5.85;1.20;;;;;;;;;;5138551;27;20563;-74
2023/04/25 07:54:54;;;;;;;9.43;1.63;;;;;;;;;;5123671;27;20490;-74
2023/04/25 07:57:20;;;;;;;3.55;0.70;;;;;;;;;;5138073;27;20103;-73
2023/04/25 07:59:46;;;;;;;4.47;0.95;;;;;;;;;;5120704;27;20436;-76
2023/04/25 08:02:13;;;;;;;4.10;1.00;;;;;;;;;;5117220;27;20055;-75
2023/04/25 08:04:39;;;;;;;6.25;0.80;;;;;;;;;;5128655;27;20046;-76
2023/04/25 08:07:05;;;;;;;5.63;0.90;;;;;;;;;;5138177;27;20444;-75
2023/04/25 08:09:34;;;;;;;4.65;1.00;;;;;;;;;;5156423;27;20034;-74
2023/04/25 08:12:01;;;;;;;5.78;1.10;;;;;;;;;;5137802;27;20391;-75
2023/04/25 08:14:28;;;;;;;3.60;0.90;;;;;;;;;;5156329;27;20042;-75
2023/04/25 08:16:55;;;;;;;4.78;1.20;;;;;;;;;;5137581;27;20054;-75
2023/04/25 08:19:21;;;;;;;7.40;1.65;;;;;;;;;;5100221;27;20050;-75
2023/04/25 08:21:47;;;;;;;5.03;1.00;;;;;;;;;;5095596;27;20042;-75
2023/04/25 08:24:13;;;;;;;5.50;1.00;;;;;;;;;;5155778;27;20047;-76
2023/04/25 08:26:41;;;;;;;6.90;1.40;;;;;;;;;;5137318;27;20049;-77
2023/04/25 08:29:07;;;;;;;7.15;1.35;;;;;;;;;;5137339;27;20038;-76
2023/04/25 08:31:33;;;;;;;5.22;1.10;;;;;;;;;;5137621;27;20050;-75
2023/04/25 08:33:59;;;;;;;4.97;1.20;;;;;;;;;;5137145;27;20054;-77
2023/04/25 08:36:25;;;;;;;4.00;1.35;;;;;;;;;;5120356;27;20101;-77
2023/04/25 08:38:51;;;;;;;3.83;1.17;;;;;;;;;;5137257;27;20479;-76
2023/04/25 08:41:18;;;;;;;3.90;0.80;;;;;;;;;;5137431;27;20360;-80
2023/04/25 08:43:45;;;;;;;2.33;0.73;;;;;;;;;;5137064;27;20043;-75
2023/04/25 08:46:12;;;;;;;7.78;1.27;;;;;;;;;;5119989;27;20057;-74
2023/04/25 08:48:40;;;;;;;2.78;0.98;;;;;;;;;;5137275;27;20050;-77
2023/04/25 08:51:08;;;;;;;5.45;1.10;;;;;;;;;;5136983;27;20046;-74
2023/04/25 08:53:34;;;;;;;5.43;1.10;;;;;;;;;;5137385;27;20510;-74
2023/04/25 08:56:02;;;;;;;5.93;1.23;;;;;;;;;;5119208;27;20042;-75
2023/04/25 08:58:29;;;;;;;4.20;1.13;;;;;;;;;;5136888;27;20077;-77
2023/04/25 09:00:55;;;;;;;5.05;1.42;;;;;;;;;;5136878;27;20479;-75
2023/04/25 09:03:21;;;;;;;4.50;1.17;;;;;;;;;;5155357;27;20145;-75
2023/04/25 09:05:47;;;;;;;6.15;1.50;;;;;;;;;;5136983;27;20498;-75
2023/04/25 09:08:13;;;;;;;8.07;1.30;;;;;;;;;;5136727;27;20066;-77
2023/04/25 09:10:40;;;;;;;8.15;1.20;;;;;;;;;;5155148;27;20038;-76
2023/04/25 09:13:12;;;;;;;6.47;1.30;;;;;;;;;;5136527;27;20042;-75
2023/04/25 09:15:52;;;;;;;5.93;1.25;;;;;;;;;;5136521;27;20090;-76
2023/04/25 09:18:34;;;;;;;6.82;1.38;;;;;;;;;;5116148;27;20054;-77
2023/04/25 09:21:07;;;;;;;4.90;1.48;;;;;;;;;;5132251;27;20384;-76
2023/04/25 09:23:41;;;;;;;6.47;1.42;;;;;;;;;;5127474;27;20039;-77
2023/04/25 09:26:08;;;;;;;6.90;1.75;;;;;;;;;;5131970;27;20126;-76
2023/04/25 09:28:35;;;;;;;4.82;1.20;;;;;;;;;;5136513;27;20039;-76
2023/04/25 09:31:01;;;;;;;5.60;1.30;;;;;;;;;;5136511;27;20057;-77
2023/04/25 09:33:36;;;;;;;5.40;1.15;;;;;;;;;;5130312;27;20035;-75
2023/04/25 09:36:07;;;;;;;5.35;1.15;;;;;;;;;;5129255;27;20047;-76
2023/04/25 09:38:40;;;;;;;7.75;1.20;;;;;;;;;;5119185;27;20045;-76
2023/04/25 09:41:06;;;;;;;6.05;1.33;;;;;;;;;;5154432;27;20506;-75
2023/04/25 09:43:33;;;;;;;5.90;1.25;;;;;;;;;;5154541;27;20094;-75
2023/04/25 09:46:00;;;;;;;13.38;1.63;;;;;;;;;;5154209;27;20047;-76
2023/04/25 09:48:26;;;;;;;5.88;1.30;;;;;;;;;;5135847;27;20495;-75
2023/04/25 09:51:06;;;;;;;7.28;1.40;;;;;;;;;;5153996;27;20096;-77
2023/04/25 09:53:33;;;;;;;8.50;1.55;;;;;;;;;;5151132;27;20410;-77
2023/04/25 09:56:00;;;;;;;12.63;1.83;;;;;;;;;;5125401;27;20521;-78
2023/04/25 09:58:30;;;;;;;5.50;1.20;;;;;;;;;;5135687;27;20039;-75
2023/04/25 10:01:00;;;;;;;5.28;1.27;;;;;;;;;;5135270;27;20050;-74
2023/04/25 10:03:26;;;;;;;7.18;1.20;;;;;;;;;;5135635;27;20041;-73
2023/04/25 10:05:53;;;;;;;6.00;1.10;;;;;;;;;;5135486;27;20065;-74
2023/04/25 10:08:19;;;;;;;5.55;1.10;;;;;;;;;;5135838;27;20052;-74
2023/04/25 10:10:47;;;;;;;3.97;1.17;;;;;;;;;;5121286;27;20031;-74
2023/04/25 10:13:14;;;;;;;6.97;1.40;;;;;;;;;;5153478;27;20052;-75
2023/04/25 10:15:40;;;;;;;5.70;1.42;;;;;;;;;;5125439;27;20045;-76
2023/04/25 10:18:07;;;;;;;4.63;1.02;;;;;;;;;;5135367;27;20400;-76
2023/04/25 10:20:33;;;;;;;4.60;1.08;;;;;;;;;;5118524;27;20046;-76
2023/04/25 10:23:07;;;;;;;2.78;0.85;;;;;;;;;;5153479;27;20053;-75
2023/04/25 10:25:34;;;;;;;4.93;1.10;;;;;;;;;;5153806;27;20176;-74
2023/04/25 10:28:02;;;;;;;6.05;1.15;;;;;;;;;;5118372;27;20042;-74
2023/04/25 10:30:28;;;;;;;5.75;1.35;;;;;;;;;;5121410;27;20094;-74
2023/04/25 10:32:55;;;;;;;7.63;1.40;;;;;;;;;;5122294;28;20114;-75
2023/04/25 10:35:30;;;;;;;3.95;1.08;;;;;;;;;;5133708;27;20043;-75
2023/04/25 10:38:06;;;;;;;6.75;1.50;;;;;;;;;;5135085;27;20046;-74
2023/04/25 10:40:33;;;;;;;3.92;1.20;;;;;;;;;;5118143;27;20045;-73
2023/04/25 10:43:22;;;;;;;5.82;1.15;;;;;;;;;;5153267;27;20127;-77
2023/04/25 10:45:52;;;;;;;5.07;1.20;;;;;;;;;;5107557;28;20047;-76
2023/04/25 10:48:31;;;;;;;4.40;1.05;;;;;;;;;;5124217;28;20046;-75
2023/04/25 10:51:16;;;;;;;6.00;1.27;;;;;;;;;;5135123;27;20023;-76
2023/04/25 10:53:44;;;;;;;4.78;1.00;;;;;;;;;;5116456;27;20034;-76
2023/04/25 10:56:20;;;;;;;6.35;1.25;;;;;;;;;;5114654;28;20387;-80
2023/04/25 10:58:46;;;;;;;6.18;1.67;;;;;;;;;;5133866;27;20073;-75
2023/04/25 11:01:13;;;;;;;6.43;1.30;;;;;;;;;;5137289;27;20046;-75
2023/04/25 11:03:41;;;;;;;6.97;1.20;;;;;;;;;;5157491;27;20066;-79
2023/04/25 11:06:10;;;;;;;4.68;1.00;;;;;;;;;;5157589;27;20039;-76
2023/04/25 11:08:57;;;;;;;8.70;1.10;;;;;;;;;;5157604;27;20050;-76
2023/04/25 11:11:23;;;;;;;;;;;;;;;;;;5139457;27;20045;-76
2023/04/25 11:13:50;;;;;;;4.30;1.40;;;;;;;;;;5139180;27;19923;-78
2023/04/25 11:16:16;;;;;;;8.35;1.30;;;;;;;;;;5157129;27;20031;-74
2023/04/25 11:18:43;;;;;;;4.45;0.85;;;;;;;;;;5157177;27;20245;-74
2023/04/25 11:21:10;;;;;;;4.80;1.00;;;;;;;;;;5121318;27;20042;-74
2023/04/25 11:23:36;;;;;;;3.65;1.00;;;;;;;;;;5138385;27;20062;-74
2023/04/25 11:26:03;;;;;;;6.50;1.80;;;;;;;;;;5138383;27;20118;-74
2023/04/25 11:28:30;;;;;;;6.43;1.10;;;;;;;;;;5121729;27;20066;-75
2023/04/25 11:30:56;;;;;;;9.32;1.25;;;;;;;;;;5138636;27;20030;-74
2023/04/25 11:33:27;;;;;;;5.45;1.10;;;;;;;;;;5138115;27;20039;-74
2023/04/25 11:35:56;;;;;;;9.00;1.90;;;;;;;;;;5121702;27;20450;-73
2023/04/25 11:38:26;;;;;;;5.60;1.10;;;;;;;;;;5138179;27;20042;-75
2023/04/25 11:40:52;;;;;;;5.88;1.20;;;;;;;;;;5138295;27;20038;-75
2023/04/25 11:43:20;;;;;;;8.77;1.17;;;;;;;;;;5120657;27;20098;-80
2023/04/25 11:45:47;;;;;;;6.07;1.45;;;;;;;;;;5138685;27;20399;-75
2023/04/25 11:48:13;;;;;;;5.00;1.02;;;;;;;;;;5141902;27;20049;-74
2023/04/25 11:50:40;;;;;;;5.53;1.00;;;;;;;;;;5121182;27;20076;-74
2023/04/25 11:53:07;;;;;;;6.13;1.50;;;;;;;;;;5138181;27;20525;-74
2023/04/25 11:55:33;;;;;;;5.45;1.10;;;;;;;;;;5138299;27;20043;-77
2023/04/25 11:58:00;;;;;;;6.93;0.93;;;;;;;;;;5121358;27;20465;-75
2023/04/25 12:00:27;;;;;;;5.47;1.00;;;;;;;;;;5120775;27;20035;-74
2023/04/25 12:02:54;;;;;;;3.47;1.10;;;;;;;;;;5121052;27;20035;-76
2023/04/25 12:05:20;;;;;;;3.92;0.88;;;;;;;;;;5137585;27;20050;-78
2023/04/25 12:07:47;;;;;;;4.93;1.00;;;;;;;;;;5121100;27;20383;-75
2023/04/25 12:10:14;;;;;;;8.77;1.20;;;;;;;;;;5137753;27;20499;-76
2023/04/25 12:12:44;;;;;;;5.70;1.50;;;;;;;;;;5120057;27;20034;-74
2023/04/25 12:15:10;;;;;;;6.40;1.30;;;;;;;;;;5156268;27;20035;-76
2023/04/25 12:17:37;;;;;;;6.03;1.38;;;;;;;;;;5137966;27;20042;-75
2023/04/25 12:20:11;;;;;;;7.55;1.30;;;;;;;;;;5138288;27;20498;-75
2023/04/25 12:22:37;;;;;;;6.25;1.20;;;;;;;;;;5117156;27;20486;-75
2023/04/25 12:25:04;;;;;;;4.85;1.25;;;;;;;;;;5125104;27;20104;-76
2023/04/25 12:27:31;;;;;;;7.60;1.30;;;;;;;;;;5117029;27;20510;-76
2023/04/25 12:29:58;;;;;;;9.15;1.23;;;;;;;;;;5134157;27;20039;-76
2023/04/25 12:32:26;;;;;;;7.10;1.58;;;;;;;;;;5133776;27;20035;-76
2023/04/25 12:34:52;;;;;;;6.68;1.17;;;;;;;;;;5134038;27;20039;-76
2023/04/25 12:37:18;;;;;;;6.68;1.23;;;;;;;;;;5133811;27;20051;-75
2023/04/25 12:39:44;;;;;;;8.40;1.30;;;;;;;;;;5116917;27;20094;-74
2023/04/25 12:42:11;;;;;;;8.60;1.80;;;;;;;;;;5133566;27;20039;-80
2023/04/25 12:44:38;;;;;;;7.10;1.40;;;;;;;;;;5133675;27;20384;-77
2023/04/25 12:47:05;;;;;;;5.88;0.90;;;;;;;;;;5134232;27;20045;-77
2023/04/25 12:49:31;;;;;;;6.45;1.20;;;;;;;;;;5133340;27;20092;-77
2023/04/25 12:51:58;;;;;;;8.18;1.35;;;;;;;;;;5133899;27;20035;-76
2023/04/25 12:54:25;;;;;;;8.00;1.38;;;;;;;;;;5115984;27;20123;-76
2023/04/25 12:56:51;;;;;;;5.35;1.20;;;;;;;;;;5116633;27;20039;-74
2023/04/25 12:59:18;;;;;;;6.07;1.25;;;;;;;;;;5133149;27;20043;-77
2023/04/25 13:01:45;;;;;;;8.75;1.25;;;;;;;;;;5133379;27;20050;-74
2023/04/25 13:04:11;;;;;;;8.82;1.20;;;;;;;;;;5132925;27;20043;-74
2023/04/25 13:06:37;;;;;;;8.52;1.30;;;;;;;;;;5134644;27;20104;-74
2023/04/25 13:09:04;;;;;;;8.00;1.13;;;;;;;;;;5133212;27;20043;-75
2023/04/25 13:11:30;;;;;;;3.40;1.15;;;;;;;;;;5134322;27;20043;-75
2023/04/25 13:13:56;;;;;;;7.20;1.13;;;;;;;;;;5134407;27;20031;-76
2023/04/25 13:16:22;;;;;;;5.45;1.00;;;;;;;;;;5132890;27;20127;-75
2023/04/25 13:18:49;;;;;;;6.00;1.10;;;;;;;;;;5133334;27;20587;-76
2023/04/25 13:21:15;;;;;;;5.30;1.00;;;;;;;;;;5132602;27;20047;-76
2023/04/25 13:23:42;;;;;;;6.70;1.35;;;;;;;;;;5133274;27;20088;-75
2023/04/25 13:26:09;;;;;;;6.78;1.23;;;;;;;;;;5136652;27;20120;-74
2023/04/25 13:28:35;;;;;;;6.72;0.80;;;;;;;;;;5136005;27;20070;-75
2023/04/25 13:31:01;;;;;;;3.63;1.00;;;;;;;;;;5119266;27;20035;-75
2023/04/25 13:33:27;;;;;;;3.08;0.70;;;;;;;;;;5136366;27;20038;-75
2023/04/25 13:35:55;;;;;;;4.43;0.88;;;;;;;;;;5154674;27;20090;-75
2023/04/25 13:38:24;;;;;;;3.08;1.00;;;;;;;;;;5154477;27;20095;-75
2023/04/25 13:40:52;;;;;;;3.60;0.70;;;;;;;;;;5136052;27;20043;-75
2023/04/25 13:43:18;;;;;;;6.53;1.10;;;;;;;;;;5136157;27;20440;-75
2023/04/25 13:45:45;;;;;;;9.88;1.20;;;;;;;;;;5136011;27;20039;-75
2023/04/25 13:48:11;;;;;;;8.77;1.38;;;;;;;;;;5136128;27;20046;-77
2023/04/25 13:50:37;;;;;;;9.20;1.40;;;;;;;;;;5136020;27;20487;-77
2023/04/25 13:53:03;;;;;;;7.60;1.27;;;;;;;;;;5118894;27;20487;-74
2023/04/25 13:55:29;;;;;;;6.95;1.20;;;;;;;;;;5107963;28;20039;-74
2023/04/25 13:57:56;;;;;;;6.63;1.42;;;;;;;;;;5115442;27;20039;-75
2023/04/25 14:00:22;;;;;;;6.45;1.52;;;;;;;;;;5135322;27;20091;-74
2023/04/25 14:02:48;;;;;;;9.45;1.55;;;;;;;;;;5119018;27;20491;-73
2023/04/25 14:05:14;;;;;;;4.93;1.10;;;;;;;;;;5133801;27;20070;-73
2023/04/25 14:07:40;;;;;;;5.93;1.50;;;;;;;;;;5141650;27;20075;-73
2023/04/25 14:10:06;;;;;;;4.15;1.40;;;;;;;;;;5154538;27;20041;-73
2023/04/25 14:12:33;;;;;;;6.05;1.48;;;;;;;;;;5135466;27;20070;-73
2023/04/25 14:14:59;;;;;;;7.18;1.35;;;;;;;;;;5135319;27;20046;-75
2023/04/25 14:17:25;;;;;;;9.50;1.80;;;;;;;;;;5153885;27;20137;-76
2023/04/25 14:19:51;;;;;;;7.07;1.38;;;;;;;;;;5116451;27;20399;-76
2023/04/25 14:22:17;;;;;;;9.02;1.30;;;;;;;;;;5114979;28;20069;-76
2023/04/25 14:24:44;;;;;;;6.68;1.50;;;;;;;;;;5114583;27;20133;-76
2023/04/25 14:27:10;;;;;;;9.00;1.42;;;;;;;;;;5135998;27;20046;-77
2023/04/25 14:29:36;;;;;;;8.00;2.30;;;;;;;;;;5153383;27;20035;-74
2023/04/25 14:32:02;;;;;;;7.63;1.30;;;;;;;;;;5135984;27;20031;-76
2023/04/25 14:34:28;;;;;;;8.25;1.50;;;;;;;;;;5134869;27;20038;-74
2023/04/25 14:36:54;;;;;;;7.05;1.40;;;;;;;;;;5135681;27;20114;-74
2023/04/25 14:39:21;;;;;;;11.30;1.70;;;;;;;;;;5135590;27;20368;-74
2023/04/25 14:41:47;;;;;;;8.63;1.73;;;;;;;;;;5135189;27;20095;-76
2023/04/25 14:44:13;;;;;;;9.00;1.88;;;;;;;;;;5117855;27;20130;-74
2023/04/25 14:46:39;;;;;;;5.80;1.23;;;;;;;;;;5135125;27;20039;-74
2023/04/25 14:49:05;;;;;;;8.43;1.30;;;;;;;;;;5135678;27;20049;-75